Palma, Brazil
Current Conditions -  °F | °C
As of 10:00 AM on Sunday 21 Dec 2014 (Local Time) from SBCP Reporting Station
Clear Clear  
Wind Chill: 90°   Ceiling: Unl
Heat Index: 100°   Visibility: 6mi
Dew Point: 75°   Wind: 5mph
Humidity: 62%   Direction: 360°N
Pressure: 29.88"   Gusts: NA
Location:  21.38°S, 42.31°W
Report Text: SBCP 211200Z 36004KT CAVOK 32/24 Q1012
Loading
Personal Weather Stations






























Interactive Weather Map New forecast layout! Learn more

10-Day Weather Forecast

Advertisements
Track Severe Weather on mobile